createdAt,value
2019-03-09T00:02:09.362Z,82.16
2019-03-09T00:07:12.289Z,82.26
2019-03-09T00:12:15.498Z,81.97
2019-03-09T00:17:18.307Z,81.53
2019-03-09T00:22:21.198Z,81.96
2019-03-09T00:27:30.880Z,82.01
2019-03-09T00:32:33.706Z,81.87
2019-03-09T00:37:37.326Z,82.21
2019-03-09T00:42:41.928Z,82.25
2019-03-09T00:47:44.335Z,82.02
2019-03-09T00:52:46.898Z,81.81
2019-03-09T00:57:50.463Z,82.17
2019-03-09T01:02:53.408Z,81.84
2019-03-09T01:07:55.995Z,82.19
2019-03-09T01:12:59.140Z,81.88
2019-03-09T01:18:01.982Z,82.07
2019-03-09T01:23:04.842Z,82.14
2019-03-09T01:28:08.388Z,81.93
2019-03-09T01:33:11.365Z,81.90
2019-03-09T01:38:14.843Z,81.72
2019-03-09T01:43:18.752Z,82.74
2019-03-09T01:48:21.901Z,84.42
2019-03-09T01:53:24.437Z,85.58
2019-03-09T01:58:27.930Z,87.65
2019-03-09T02:03:30.722Z,88.63
2019-03-09T02:08:33.931Z,89.61
2019-03-09T02:13:36.835Z,90.47
2019-03-09T02:18:40.041Z,91.10
2019-03-09T02:23:43.251Z,92.69
2019-03-09T02:28:45.851Z,93.12
2019-03-09T02:33:49.063Z,94.07
2019-03-09T02:38:59.238Z,94.24
2019-03-09T02:44:02.440Z,94.97
2019-03-09T02:49:05.974Z,96.04
2019-03-09T02:54:09.112Z,96.46
2019-03-09T02:59:12.270Z,97.32
2019-03-09T03:04:16.861Z,98.00
2019-03-09T03:09:19.727Z,98.19
2019-03-09T03:14:23.203Z,97.84
2019-03-09T03:19:26.391Z,98.15
2019-03-09T03:24:29.357Z,97.97
2019-03-09T03:29:32.849Z,97.50
2019-03-09T03:34:36.053Z,98.15
2019-03-09T03:39:39.285Z,97.63
2019-03-09T03:44:45.483Z,97.79
2019-03-09T03:49:49.062Z,98.21
2019-03-09T03:54:52.147Z,97.98
2019-03-09T03:59:55.167Z,98.89
2019-03-09T04:04:57.721Z,99.13
2019-03-09T04:10:01.537Z,99.70
2019-03-09T04:15:05.578Z,100.00
2019-03-09T04:20:09.996Z,100.00
2019-03-09T04:25:13.781Z,100.00
2019-03-09T04:30:17.022Z,100.00
2019-03-09T04:35:20.240Z,100.00
2019-03-09T04:40:23.548Z,100.00
2019-03-09T04:45:27.069Z,100.00
2019-03-09T04:50:30.553Z,100.00
2019-03-09T04:55:33.034Z,100.00
2019-03-09T05:00:35.631Z,100.00
2019-03-09T05:05:38.463Z,100.00
2019-03-09T05:10:50.480Z,100.00
2019-03-09T05:15:53.692Z,100.00
2019-03-09T05:20:56.960Z,100.00
2019-03-09T05:26:00.215Z,100.00
2019-03-09T05:31:03.413Z,100.00
2019-03-09T05:36:05.924Z,100.00
2019-03-09T05:41:09.430Z,100.00
2019-03-09T05:46:12.954Z,100.00
2019-03-09T05:51:15.508Z,100.00
2019-03-09T05:56:18.363Z,100.00
2019-03-09T06:01:21.353Z,99.41
2019-03-09T06:06:24.851Z,97.43
2019-03-09T06:11:28.481Z,96.91
2019-03-09T06:16:31.496Z,95.92
2019-03-09T06:21:34.653Z,94.52
2019-03-09T06:26:37.814Z,93.44
2019-03-09T06:31:43.045Z,92.32
2019-03-09T06:37:09.122Z,91.06
2019-03-09T06:42:39.490Z,89.59
2019-03-09T06:47:41.967Z,90.33
2019-03-09T06:52:44.858Z,88.66
2019-03-09T06:57:47.767Z,88.41
2019-03-09T07:02:50.936Z,88.07
2019-03-09T07:07:53.869Z,88.17
2019-03-09T07:12:56.785Z,88.15
2019-03-09T07:18:02.309Z,87.02
2019-03-09T07:23:05.689Z,87.47
2019-03-09T07:28:11.026Z,86.23
2019-03-09T07:33:13.909Z,85.52
2019-03-09T07:38:16.817Z,85.74
2019-03-09T07:43:19.765Z,85.12
2019-03-09T07:48:22.978Z,83.68
2019-03-09T07:53:26.355Z,83.36
2019-03-09T07:58:29.342Z,82.10
2019-03-09T08:03:32.983Z,81.79
2019-03-09T08:08:36.469Z,81.51
2019-03-09T08:13:39.716Z,81.78
2019-03-09T08:18:42.397Z,80.60
2019-03-09T08:23:45.655Z,81.20
2019-03-09T08:28:48.990Z,79.56
2019-03-09T08:33:52.126Z,79.77
2019-03-09T08:38:55.511Z,78.07
2019-03-09T08:43:58.757Z,76.87
2019-03-09T08:49:02.379Z,76.00
2019-03-09T08:54:05.750Z,75.09
2019-03-09T08:59:08.709Z,75.03
2019-03-09T09:04:12.318Z,73.68
2019-03-09T09:09:15.654Z,73.37
2019-03-09T09:14:18.810Z,74.83
2019-03-09T09:19:22.153Z,75.15
2019-03-09T09:24:25.718Z,75.64
2019-03-09T09:29:29.003Z,75.69
2019-03-09T09:34:32.201Z,75.58
2019-03-09T09:39:35.089Z,74.83
2019-03-09T09:44:38.403Z,73.58
2019-03-09T09:49:41.912Z,75.50
2019-03-09T09:54:45.149Z,80.94
2019-03-09T09:59:48.654Z,83.44
2019-03-09T10:04:51.998Z,81.74
2019-03-09T10:09:55.599Z,77.09
2019-03-09T10:14:59.096Z,76.78
2019-03-09T10:20:02.039Z,75.40
2019-03-09T10:25:05.392Z,74.68
2019-03-09T10:30:12.007Z,73.95
2019-03-09T10:35:16.726Z,73.30
2019-03-09T10:40:19.651Z,76.53
2019-03-09T10:45:22.095Z,76.72
2019-03-09T10:50:26.093Z,74.18
2019-03-09T10:55:29.426Z,73.08
2019-03-09T11:00:32.971Z,72.95
2019-03-09T11:05:36.549Z,71.76
2019-03-09T11:10:39.391Z,71.91
2019-03-09T11:15:42.641Z,71.86
2019-03-09T11:20:45.559Z,71.01
2019-03-09T11:25:49.062Z,69.36
2019-03-09T11:30:52.369Z,68.34
2019-03-09T11:35:55.951Z,68.67
2019-03-09T11:41:00.837Z,70.44
2019-03-09T11:46:04.634Z,69.95
2019-03-09T11:51:07.661Z,70.05
2019-03-09T11:56:10.562Z,70.60
2019-03-09T12:01:13.795Z,70.36
2019-03-09T12:06:17.791Z,67.58
2019-03-09T12:11:21.349Z,69.22
2019-03-09T12:16:24.910Z,69.15
2019-03-09T12:21:27.970Z,68.41
2019-03-09T12:26:32.015Z,66.90
2019-03-09T12:31:38.447Z,66.15
2019-03-09T12:36:41.657Z,66.95
2019-03-09T12:41:48.168Z,68.02
2019-03-09T12:46:51.976Z,66.00
2019-03-09T12:51:55.235Z,65.37
2019-03-09T12:56:58.563Z,65.06
2019-03-09T13:02:02.224Z,66.21
2019-03-09T13:07:05.496Z,65.79
2019-03-09T13:12:10.047Z,67.28
2019-03-09T13:17:13.606Z,67.93
2019-03-09T13:22:16.529Z,67.15
2019-03-09T13:27:19.709Z,66.50
2019-03-09T13:32:22.624Z,66.49
2019-03-09T13:37:26.153Z,68.38
2019-03-09T13:42:29.397Z,68.35
2019-03-09T13:47:32.680Z,69.51
2019-03-09T13:52:36.691Z,69.70
2019-03-09T13:57:40.221Z,69.83
2019-03-09T14:02:44.091Z,69.95
2019-03-09T14:07:50.205Z,70.58
2019-03-09T14:12:53.863Z,71.51
2019-03-09T14:17:57.664Z,72.28
2019-03-09T14:23:00.987Z,74.36
2019-03-09T14:28:04.285Z,74.07
2019-03-09T14:33:07.252Z,74.92
2019-03-09T14:38:10.872Z,75.90
2019-03-09T14:43:14.328Z,77.16
2019-03-09T14:48:17.664Z,75.57
2019-03-09T14:53:20.945Z,71.98
2019-03-09T14:58:26.022Z,73.06
2019-03-09T15:03:29.288Z,75.71
2019-03-09T15:08:32.504Z,79.45
2019-03-09T15:13:35.024Z,82.73
2019-03-09T15:18:37.601Z,85.20
2019-03-09T15:23:41.156Z,85.95
2019-03-09T15:28:44.430Z,85.11
2019-03-09T15:33:47.981Z,85.83
2019-03-09T15:38:51.482Z,86.33
2019-03-09T15:43:55.054Z,87.11
2019-03-09T15:48:58.152Z,87.07
2019-03-09T15:54:01.265Z,86.07
2019-03-09T15:59:04.911Z,86.92
2019-03-09T16:04:08.239Z,85.67
2019-03-09T16:09:11.604Z,89.79
2019-03-09T16:14:15.178Z,84.41
2019-03-09T16:19:19.700Z,84.88
2019-03-09T16:24:25.453Z,83.84
2019-03-09T16:29:28.709Z,84.81
2019-03-09T16:34:32.333Z,85.02
2019-03-09T16:39:35.845Z,85.18
2019-03-09T16:44:39.417Z,86.41
2019-03-09T16:49:42.752Z,88.25
2019-03-09T16:54:45.968Z,88.36
2019-03-09T16:59:49.228Z,85.76
2019-03-09T17:04:52.828Z,85.37
2019-03-09T17:09:55.747Z,85.41
2019-03-09T17:14:59.342Z,88.44
2019-03-09T17:20:03.123Z,87.65
2019-03-09T17:25:07.130Z,87.93
2019-03-09T17:30:12.473Z,87.68
2019-03-09T17:35:15.408Z,87.80
2019-03-09T17:40:18.023Z,87.94
2019-03-09T17:45:21.423Z,88.20
2019-03-09T17:50:24.731Z,87.75
2019-03-09T17:55:28.006Z,88.28
2019-03-09T18:00:42.063Z,88.07
2019-03-09T18:05:38.985Z,88.46
2019-03-09T18:10:45.021Z,89.02
2019-03-09T18:15:48.302Z,89.17
2019-03-09T18:20:51.382Z,89.09
2019-03-09T18:25:54.793Z,88.83
2019-03-09T18:30:58.437Z,89.62
2019-03-09T18:36:01.866Z,89.56
2019-03-09T18:41:05.237Z,90.21
2019-03-09T18:46:08.516Z,90.92
2019-03-09T18:51:12.089Z,91.21
2019-03-09T18:56:15.353Z,91.86
2019-03-09T19:01:18.772Z,92.39
2019-03-09T19:06:23.905Z,92.05
2019-03-09T19:11:31.357Z,92.36
2019-03-09T19:16:37.653Z,91.93
2019-03-09T19:21:42.411Z,91.07
2019-03-09T19:26:47.525Z,90.35
2019-03-09T19:31:53.462Z,90.39
2019-03-09T19:37:00.897Z,89.67
2019-03-09T19:42:06.867Z,90.09
2019-03-09T19:47:12.606Z,87.58
2019-03-09T19:52:18.112Z,86.25
2019-03-09T19:57:25.277Z,86.36
2019-03-09T20:02:32.394Z,86.17
2019-03-09T20:07:40.738Z,85.23
2019-03-09T20:12:48.545Z,86.08
2019-03-09T20:17:56.974Z,85.63
2019-03-09T20:23:03.262Z,85.75
2019-03-09T20:28:10.410Z,85.62
2019-03-09T20:33:18.572Z,86.21
2019-03-09T20:38:29.216Z,86.43
2019-03-09T20:43:37.786Z,86.03
2019-03-09T20:48:46.621Z,85.86
2019-03-09T20:53:52.679Z,85.45
2019-03-09T20:58:58.577Z,83.65
2019-03-09T21:04:06.417Z,83.31
2019-03-09T21:09:12.807Z,82.82
2019-03-09T21:14:19.202Z,80.86
2019-03-09T21:19:26.203Z,81.54
2019-03-09T21:24:30.540Z,83.01
2019-03-09T21:29:34.185Z,83.66
2019-03-09T21:34:38.163Z,84.45
2019-03-09T21:39:41.423Z,84.53
2019-03-09T21:44:44.692Z,85.42
2019-03-09T21:49:47.737Z,84.95
2019-03-09T21:54:50.743Z,84.86
2019-03-09T21:59:53.753Z,84.86
2019-03-09T22:04:56.331Z,84.76
2019-03-09T22:10:00.920Z,85.79
2019-03-09T22:15:04.712Z,85.76
2019-03-09T22:20:08.087Z,85.26
2019-03-09T22:25:11.778Z,85.89
2019-03-09T22:30:14.646Z,87.02
2019-03-09T22:35:18.303Z,86.73
2019-03-09T22:40:21.945Z,87.34
2019-03-09T22:45:25.291Z,87.61
2019-03-09T22:50:28.593Z,86.96
2019-03-09T22:55:31.800Z,86.97
2019-03-09T23:00:36.673Z,86.40
2019-03-09T23:05:39.632Z,85.58
2019-03-09T23:10:43.235Z,84.68
2019-03-09T23:15:45.884Z,84.14
2019-03-09T23:20:48.459Z,83.93
2019-03-09T23:25:51.393Z,82.51
2019-03-09T23:30:54.669Z,81.71
2019-03-09T23:35:57.861Z,82.25
2019-03-09T23:41:01.932Z,82.15
2019-03-09T23:46:05.144Z,81.86
2019-03-09T23:51:08.469Z,81.55
2019-03-09T23:56:13.621Z,81.77
